Tilford, South Dakota
Current Conditions -  °F | °C
As of 11:58 AM on Monday 20 Oct 2014 (Local Time) from KRCA Reporting Station
Clear Clear  
Wind Chill: 68°   Ceiling: Unl
Heat Index: 68°   Visibility: 10mi
Dew Point: 45°   Wind: 16mph
Humidity: 43%   Direction: 180°S
Pressure: 30"   Gusts: 21mph
Location:  44.2544°N, 103.292°W
Report Text: KRCA 201758Z 18014G18KT 10SM CLR 20/07 A3000 RMK AO2A SLP155 $
Loading
Personal Weather Stations






























Interactive Weather Map New forecast layout! Learn more

10-Day Weather Forecast

Advertisements
Track Severe Weather on mobile